Terminal Aerodrome Forecast
Issued by NWS Riverton, WY

Home | Current Version | Previous Version | Text Only | Print | Product List | Glossary On
Versions: 1 2 3 4 5 6 7 8 9 10 11 12 13 14 15 16 17 18 19 20
000
FTUS45 KRIW 010500
TAFRIW
TAF
KRIW 010531Z 0106/0206 31013KT P6SM VCSH BKN100
     FM011000 02007KT P6SM OVC020
     FM011600 01011KT P6SM VCSH BKN020
     FM012100 02008KT P6SM VCSH SCT020 BKN040
     FM020200 29007KT P6SM SCT050 BKN100=

USA.gov is the U.S. government's official web portal to all federal, state and local government web resources and services.